createdAt,value
2022-12-23T00:01:27.787Z,32.53
2022-12-23T00:03:59.423Z,32.13
2022-12-23T00:06:27.102Z,41.53
2022-12-23T00:08:59.076Z,43.17
2022-12-23T00:11:29.449Z,44.05
2022-12-23T00:14:21.652Z,41.25
2022-12-23T00:16:52.336Z,35.60
2022-12-23T00:19:20.306Z,29.45
2022-12-23T00:21:48.760Z,42.53
2022-12-23T00:24:21.206Z,41.33
2022-12-23T00:26:50.784Z,41.42
2022-12-23T00:29:23.323Z,43.63
2022-12-23T00:34:21.199Z,43.35
2022-12-23T00:36:48.076Z,45.17
2022-12-23T00:39:33.560Z,44.28
2022-12-23T00:42:18.926Z,45.72
2022-12-23T00:44:48.703Z,44.53
2022-12-23T00:47:35.487Z,45.50
2022-12-23T00:50:02.364Z,45.92
2022-12-23T00:52:29.171Z,45.20
2022-12-23T00:55:01.351Z,45.00
2022-12-23T00:57:29.822Z,42.60
2022-12-23T00:59:56.921Z,43.42
2022-12-23T01:02:45.660Z,44.30
2022-12-23T01:05:41.434Z,42.88
2022-12-23T01:08:10.838Z,44.50
2022-12-23T01:10:39.323Z,43.00
2022-12-23T01:13:09.589Z,43.30
2022-12-23T01:15:39.184Z,41.85
2022-12-23T01:18:06.169Z,44.40
2022-12-23T01:20:32.997Z,43.95
2022-12-23T01:22:59.861Z,32.78
2022-12-23T01:25:26.582Z,41.75
2022-12-23T01:27:53.318Z,41.08
2022-12-23T01:30:23.190Z,30.77
2022-12-23T01:32:50.049Z,30.42
2022-12-23T01:35:16.952Z,26.92
2022-12-23T01:37:44.468Z,29.23
2022-12-23T01:40:11.571Z,36.88
2022-12-23T01:42:45.376Z,38.53
2022-12-23T01:45:28.232Z,40.65
2022-12-23T01:50:43.869Z,29.92
2022-12-23T01:53:30.452Z,38.25
2022-12-23T01:56:26.983Z,38.63
2022-12-23T01:59:01.192Z,39.50
2022-12-23T02:01:48.634Z,41.08
2022-12-23T02:04:22.004Z,29.33
2022-12-23T02:07:12.380Z,35.83
2022-12-23T02:09:41.078Z,36.60
2022-12-23T02:12:32.236Z,37.17
2022-12-23T02:15:42.653Z,38.90
2022-12-23T02:18:24.524Z,39.30
2022-12-23T02:21:16.430Z,41.13
2022-12-23T02:24:26.671Z,39.10
2022-12-23T02:27:03.152Z,39.90
2022-12-23T02:29:42.148Z,28.48
2022-12-23T02:32:36.386Z,36.58
2022-12-23T02:35:27.818Z,38.35
2022-12-23T02:38:03.061Z,39.15
2022-12-23T02:41:08.050Z,38.35
2022-12-23T02:43:53.940Z,39.55
2022-12-23T02:46:39.237Z,27.98
2022-12-23T02:49:35.142Z,37.50
2022-12-23T02:52:16.067Z,26.50
2022-12-23T02:54:49.661Z,25.77
2022-12-23T02:57:31.620Z,23.52
2022-12-23T03:00:00.507Z,36.28
2022-12-23T03:02:30.597Z,35.65
2022-12-23T03:04:57.471Z,37.40
2022-12-23T03:07:31.503Z,29.20
2022-12-23T03:10:16.579Z,39.22
2022-12-23T03:13:08.928Z,36.72
2022-12-23T03:15:35.710Z,38.35
2022-12-23T03:18:21.792Z,39.67
2022-12-23T03:21:09.288Z,38.28
2022-12-23T03:23:43.250Z,38.88
2022-12-23T03:26:17.101Z,39.17
2022-12-23T03:29:10.469Z,39.63
2022-12-23T03:31:42.119Z,40.90
2022-12-23T03:34:12.728Z,40.33
2022-12-23T03:36:48.360Z,39.72
2022-12-23T03:39:22.973Z,41.78
2022-12-23T03:42:13.551Z,40.30
2022-12-23T03:45:10.778Z,40.08
2022-12-23T03:47:48.175Z,40.80
2022-12-23T03:50:23.053Z,41.60
2022-12-23T03:53:02.231Z,40.40
2022-12-23T03:55:41.591Z,41.22
2022-12-23T03:58:33.849Z,42.67
2022-12-23T04:01:11.577Z,41.47
2022-12-23T04:04:15.880Z,32.25
2022-12-23T04:07:31.347Z,41.70
2022-12-23T04:09:59.173Z,39.80
2022-12-23T04:12:27.663Z,27.20
2022-12-23T04:14:54.522Z,27.73
2022-12-23T04:17:23.149Z,37.10
2022-12-23T04:19:51.046Z,38.67
2022-12-23T04:22:20.817Z,40.15
2022-12-23T04:24:47.726Z,27.20
2022-12-23T04:27:21.432Z,25.25
2022-12-23T04:29:48.314Z,38.15
2022-12-23T04:32:18.172Z,38.25
2022-12-23T04:34:48.487Z,25.67
2022-12-23T04:37:16.551Z,35.78
2022-12-23T04:39:45.862Z,37.97
2022-12-23T04:42:16.092Z,27.95
2022-12-23T04:44:57.649Z,23.95
2022-12-23T04:47:42.367Z,34.20
2022-12-23T04:50:14.105Z,36.47
2022-12-23T04:52:43.229Z,26.17
2022-12-23T04:55:14.134Z,24.65
2022-12-23T04:57:44.860Z,37.47
2022-12-23T05:00:12.353Z,40.97
2022-12-23T05:02:39.340Z,42.55
2022-12-23T05:05:06.688Z,50.38
2022-12-23T05:07:38.163Z,46.28
2022-12-23T05:10:05.232Z,47.28
2022-12-23T05:12:34.826Z,48.95
2022-12-23T05:15:04.347Z,51.22
2022-12-23T05:17:33.643Z,52.33
2022-12-23T05:20:04.695Z,49.92
2022-12-23T05:22:34.616Z,28.35
2022-12-23T05:25:07.522Z,39.85
2022-12-23T05:27:43.118Z,30.92
2022-12-23T05:30:12.806Z,45.15
2022-12-23T05:32:43.556Z,43.22
2022-12-23T05:35:14.559Z,30.75
2022-12-23T05:37:45.638Z,29.45
2022-12-23T05:40:18.473Z,37.50
2022-12-23T05:42:48.594Z,30.27
2022-12-23T05:45:26.648Z,30.50
2022-12-23T05:48:00.940Z,36.92
2022-12-23T05:50:32.078Z,38.38
2022-12-23T05:52:58.967Z,36.35
2022-12-23T05:55:29.269Z,35.70
2022-12-23T05:58:02.179Z,27.15
2022-12-23T06:00:33.219Z,28.83
2022-12-23T06:03:06.076Z,25.92
2022-12-23T06:05:33.353Z,28.60
2022-12-23T06:08:05.848Z,35.78
2022-12-23T06:13:08.654Z,27.50
2022-12-23T06:15:35.440Z,36.28
2022-12-23T06:18:08.041Z,28.73
2022-12-23T06:20:35.210Z,24.98
2022-12-23T06:23:03.071Z,33.22
2022-12-23T06:25:32.566Z,33.50
2022-12-23T06:28:11.704Z,34.85
2022-12-23T06:30:39.187Z,32.90
2022-12-23T06:33:10.881Z,34.65
2022-12-23T06:35:45.315Z,35.30
2022-12-23T06:38:15.396Z,34.22
2022-12-23T06:40:47.732Z,36.30
2022-12-23T06:43:19.933Z,37.17
2022-12-23T06:45:52.925Z,32.17
2022-12-23T06:48:23.398Z,34.20
2022-12-23T06:50:50.553Z,29.27
2022-12-23T06:53:17.332Z,36.50
2022-12-23T06:55:47.048Z,36.42
2022-12-23T06:58:16.196Z,25.67
2022-12-23T07:00:47.070Z,26.90
2022-12-23T07:03:14.949Z,24.90
2022-12-23T07:05:51.510Z,27.23
2022-12-23T07:08:21.388Z,25.85
2022-12-23T07:10:51.523Z,25.17
2022-12-23T07:13:21.479Z,27.20
2022-12-23T07:15:48.266Z,39.30
2022-12-23T07:18:24.089Z,25.75
2022-12-23T07:20:54.689Z,28.55
2022-12-23T07:23:23.546Z,26.92
2022-12-23T07:25:51.041Z,28.02
2022-12-23T07:28:17.810Z,26.80
2022-12-23T07:30:49.560Z,29.85
2022-12-23T07:33:16.825Z,36.50
2022-12-23T07:35:52.649Z,33.55
2022-12-23T07:38:23.909Z,28.25
2022-12-23T07:40:53.882Z,28.23
2022-12-23T07:43:20.745Z,29.40
2022-12-23T07:46:00.047Z,27.10
2022-12-23T07:48:30.765Z,29.05
2022-12-23T07:51:08.051Z,34.85
2022-12-23T07:53:38.235Z,35.13
2022-12-23T07:56:13.744Z,29.45
2022-12-23T07:58:43.065Z,31.90
2022-12-23T08:01:11.528Z,32.47
2022-12-23T08:03:46.164Z,31.10
2022-12-23T08:06:20.337Z,31.42
2022-12-23T08:08:47.344Z,28.60
2022-12-23T08:11:15.595Z,25.98
2022-12-23T08:13:44.384Z,30.00
2022-12-23T08:16:12.429Z,27.00
2022-12-23T08:18:41.184Z,28.90
2022-12-23T08:21:17.573Z,25.77
2022-12-23T08:23:44.841Z,26.02
2022-12-23T08:26:21.092Z,25.73
2022-12-23T08:28:53.925Z,24.25
2022-12-23T08:31:33.035Z,24.10
2022-12-23T08:34:01.876Z,24.27
2022-12-23T08:36:33.992Z,23.80
2022-12-23T08:39:05.291Z,23.90
2022-12-23T08:41:35.865Z,24.17
2022-12-23T08:44:02.946Z,24.02
2022-12-23T08:46:29.913Z,24.45
2022-12-23T08:48:57.377Z,23.67
2022-12-23T08:51:25.568Z,27.25
2022-12-23T08:54:00.486Z,31.13
2022-12-23T08:56:32.052Z,24.00
2022-12-23T08:58:59.664Z,23.40
2022-12-23T09:01:31.745Z,27.10
2022-12-23T09:04:01.615Z,24.40
2022-12-23T09:06:32.066Z,23.50
2022-12-23T09:08:59.462Z,23.70
2022-12-23T09:11:29.468Z,28.83
2022-12-23T09:13:58.192Z,23.38
2022-12-23T09:16:25.173Z,22.58
2022-12-23T09:18:55.110Z,22.95
2022-12-23T09:21:23.684Z,24.45
2022-12-23T09:23:53.628Z,24.65
2022-12-23T09:26:27.247Z,22.48
2022-12-23T09:28:57.478Z,22.27
2022-12-23T09:31:34.128Z,29.30
2022-12-23T09:34:03.832Z,26.30
2022-12-23T09:36:30.779Z,25.55
2022-12-23T09:39:00.918Z,22.52
2022-12-23T09:41:42.477Z,22.38
2022-12-23T09:44:28.082Z,23.80
2022-12-23T09:46:58.853Z,22.83
2022-12-23T09:49:25.662Z,30.98
2022-12-23T09:51:57.695Z,22.60
2022-12-23T09:54:40.109Z,30.25
2022-12-23T09:57:22.889Z,23.95
2022-12-23T10:03:11.411Z,25.00
2022-12-23T10:05:44.673Z,31.35
2022-12-23T10:08:24.856Z,31.60
2022-12-23T10:10:56.984Z,25.30
2022-12-23T10:13:31.344Z,23.98
2022-12-23T10:16:04.495Z,29.58
2022-12-23T10:18:56.201Z,29.58
2022-12-23T10:21:31.965Z,26.55
2022-12-23T10:24:03.658Z,25.25
2022-12-23T10:26:48.974Z,27.10
2022-12-23T10:29:21.369Z,33.88
2022-12-23T10:31:56.946Z,22.90
2022-12-23T10:34:38.752Z,27.33
2022-12-23T10:37:20.408Z,33.53
2022-12-23T10:40:13.149Z,38.65
2022-12-23T10:42:54.417Z,31.60
2022-12-23T10:45:42.986Z,37.63
2022-12-23T10:48:30.657Z,29.17
2022-12-23T10:51:08.728Z,38.20
2022-12-23T10:53:49.879Z,39.25
2022-12-23T10:56:17.656Z,40.20
2022-12-23T10:58:49.976Z,38.10
2022-12-23T11:01:26.189Z,37.88
2022-12-23T11:04:16.601Z,39.78
2022-12-23T11:06:50.584Z,38.78
2022-12-23T11:09:25.748Z,29.98
2022-12-23T11:12:02.067Z,33.00
2022-12-23T11:14:53.189Z,30.52
2022-12-23T11:17:35.311Z,37.95
2022-12-23T11:20:17.809Z,27.95
2022-12-23T11:22:56.864Z,28.10
2022-12-23T11:25:35.807Z,26.58
2022-12-23T11:28:17.312Z,37.58
2022-12-23T11:30:57.233Z,39.17
2022-12-23T11:33:33.775Z,31.92
2022-12-23T11:36:08.263Z,32.28
2022-12-23T11:38:38.079Z,38.47
2022-12-23T11:41:05.784Z,33.38
2022-12-23T11:43:34.177Z,31.50
2022-12-23T11:46:24.747Z,29.35
2022-12-23T11:49:19.856Z,29.10
2022-12-23T11:51:59.081Z,28.58
2022-12-23T11:54:25.914Z,28.45
2022-12-23T11:56:53.629Z,37.25
2022-12-23T11:59:28.752Z,35.28
2022-12-23T12:01:58.604Z,39.83
2022-12-23T12:04:29.080Z,27.95
2022-12-23T12:06:56.910Z,33.25
2022-12-23T12:09:25.035Z,34.17
2022-12-23T12:12:03.964Z,30.20
2022-12-23T12:14:46.015Z,27.08
2022-12-23T12:17:33.460Z,28.30
2022-12-23T12:20:32.087Z,28.55
2022-12-23T12:23:40.523Z,29.38
2022-12-23T12:26:43.604Z,27.70
2022-12-23T12:29:18.969Z,34.22
2022-12-23T12:31:49.300Z,35.25
2022-12-23T12:34:51.644Z,33.58
2022-12-23T12:37:30.016Z,36.60
2022-12-23T12:40:26.173Z,28.45
2022-12-23T12:43:24.633Z,27.92
2022-12-23T12:46:36.453Z,33.75
2022-12-23T12:49:15.091Z,30.00
2022-12-23T12:52:09.158Z,34.25
2022-12-23T12:55:00.748Z,30.83
2022-12-23T12:57:30.267Z,32.72
2022-12-23T13:00:10.421Z,31.08
2022-12-23T13:03:35.147Z,27.90
2022-12-23T13:06:38.365Z,27.63
2022-12-23T13:09:33.748Z,25.77
2022-12-23T13:12:24.820Z,24.65
2022-12-23T13:15:08.361Z,24.73
2022-12-23T13:17:52.651Z,31.38
2022-12-23T13:20:22.529Z,26.48
2022-12-23T13:23:42.725Z,28.85
2022-12-23T13:26:31.851Z,30.00
2022-12-23T13:29:20.921Z,34.50
2022-12-23T13:32:08.749Z,27.20
2022-12-23T13:35:23.275Z,26.70
2022-12-23T13:38:08.529Z,25.55
2022-12-23T13:41:12.443Z,29.85
2022-12-23T13:43:54.787Z,33.88
2022-12-23T13:46:38.343Z,26.13
2022-12-23T13:49:42.871Z,27.88
2022-12-23T13:52:21.614Z,28.25
2022-12-23T13:54:54.220Z,24.65
2022-12-23T13:58:00.850Z,29.95
2022-12-23T14:00:33.640Z,25.60
2022-12-23T14:03:01.133Z,28.70
2022-12-23T14:05:51.121Z,34.28
2022-12-23T14:08:28.095Z,29.98
2022-12-23T14:11:13.533Z,28.10
2022-12-23T14:14:02.943Z,27.35
2022-12-23T14:16:50.291Z,26.27
2022-12-23T14:19:50.119Z,26.50
2022-12-23T14:22:33.193Z,29.73
2022-12-23T14:25:26.639Z,40.08
2022-12-23T14:28:11.612Z,37.22
2022-12-23T14:30:48.798Z,33.78
2022-12-23T14:33:25.814Z,34.42
2022-12-23T14:35:56.063Z,32.75
2022-12-23T14:38:26.198Z,31.77
2022-12-23T14:40:55.477Z,33.03
2022-12-23T14:43:22.431Z,32.78
2022-12-23T14:45:51.368Z,32.05
2022-12-23T14:48:37.171Z,32.20
2022-12-23T14:51:22.071Z,31.98
2022-12-23T14:53:54.879Z,27.65
2022-12-23T14:56:29.552Z,30.95
2022-12-23T14:59:25.828Z,28.65
2022-12-23T15:02:12.848Z,26.25
2022-12-23T15:04:50.485Z,30.90
2022-12-23T15:07:44.237Z,28.48
2022-12-23T15:10:20.793Z,24.67
2022-12-23T15:13:03.723Z,24.40
2022-12-23T15:15:31.965Z,23.67
2022-12-23T15:18:21.913Z,26.88
2022-12-23T15:21:04.613Z,29.33
2022-12-23T15:23:31.464Z,28.95
2022-12-23T15:26:02.921Z,29.17
2022-12-23T15:28:46.263Z,27.02
2022-12-23T15:31:44.494Z,30.40
2022-12-23T15:34:19.014Z,29.17
2022-12-23T15:36:49.432Z,22.38
2022-12-23T15:39:25.304Z,27.45
2022-12-23T15:41:55.128Z,22.27
2022-12-23T15:44:25.365Z,21.08
2022-12-23T15:46:52.923Z,21.13
2022-12-23T15:49:21.872Z,24.60
2022-12-23T15:52:08.884Z,22.77
2022-12-23T15:54:45.567Z,22.75
2022-12-23T15:57:18.159Z,22.63
2022-12-23T15:59:47.997Z,24.00
2022-12-23T16:05:48.876Z,23.80
2022-12-23T16:08:29.083Z,24.70
2022-12-23T16:11:22.697Z,24.42
2022-12-23T16:14:00.471Z,36.13
2022-12-23T16:16:30.829Z,35.35
2022-12-23T16:18:57.667Z,35.03
2022-12-23T16:21:29.859Z,36.17
2022-12-23T16:23:58.185Z,34.10
2022-12-23T16:26:25.257Z,37.30
2022-12-23T16:28:57.692Z,34.67
2022-12-23T16:33:59.249Z,36.25
2022-12-23T16:36:38.536Z,37.35
2022-12-23T16:39:26.811Z,38.92
2022-12-23T16:42:04.396Z,29.35
2022-12-23T16:44:37.472Z,33.42
2022-12-23T16:47:17.016Z,27.20
2022-12-23T16:49:47.901Z,25.65
2022-12-23T16:52:23.094Z,26.63
2022-12-23T16:54:55.829Z,37.53
2022-12-23T16:59:55.092Z,35.78
2022-12-23T17:02:32.086Z,35.08
2022-12-23T17:05:03.768Z,37.80
2022-12-23T17:07:35.854Z,27.63
2022-12-23T17:10:12.415Z,38.03
2022-12-23T17:12:39.377Z,36.65
2022-12-23T17:15:07.752Z,40.28
2022-12-23T17:17:36.357Z,39.90
2022-12-23T17:20:11.124Z,36.92
2022-12-23T17:22:51.673Z,38.78
2022-12-23T17:25:26.753Z,36.85
2022-12-23T17:27:55.682Z,28.13
2022-12-23T17:30:27.675Z,41.05
2022-12-23T17:33:02.373Z,39.67
2022-12-23T17:35:31.596Z,36.22
2022-12-23T17:37:58.432Z,27.95
2022-12-23T17:40:28.235Z,28.10
2022-12-23T17:42:55.860Z,28.50
2022-12-23T17:45:30.259Z,25.63
2022-12-23T17:48:00.123Z,42.45
2022-12-23T17:50:35.989Z,37.58
2022-12-23T17:53:04.497Z,37.08
2022-12-23T17:55:31.481Z,39.17
2022-12-23T17:58:01.759Z,38.67
2022-12-23T18:00:34.409Z,34.08
2022-12-23T18:03:07.501Z,41.50
2022-12-23T18:05:39.274Z,40.97
2022-12-23T18:08:06.093Z,27.33
2022-12-23T18:10:44.980Z,31.90
2022-12-23T18:13:18.781Z,27.17
2022-12-23T18:15:46.160Z,41.95
2022-12-23T18:18:28.648Z,28.85
2022-12-23T18:21:02.150Z,44.45
2022-12-23T18:23:41.312Z,42.17
2022-12-23T18:26:15.347Z,43.85
2022-12-23T18:28:45.610Z,42.90
2022-12-23T18:31:35.719Z,45.88
2022-12-23T18:34:07.212Z,45.08
2022-12-23T18:36:34.278Z,44.67
2022-12-23T18:39:01.237Z,45.42
2022-12-23T18:41:28.312Z,30.50
2022-12-23T18:43:55.435Z,32.70
2022-12-23T18:46:22.539Z,36.53
2022-12-23T18:48:49.762Z,30.80
2022-12-23T18:51:21.225Z,29.27
2022-12-23T18:53:53.608Z,32.42
2022-12-23T18:56:24.628Z,43.63
2022-12-23T18:58:51.861Z,46.22
2022-12-23T19:01:23.619Z,46.17
2022-12-23T19:04:04.523Z,31.25
2022-12-23T19:06:32.207Z,31.37
2022-12-23T19:08:58.911Z,43.53
2022-12-23T19:11:25.685Z,31.60
2022-12-23T19:14:01.538Z,31.50
2022-12-23T19:16:30.773Z,46.97
2022-12-23T19:19:00.142Z,49.45
2022-12-23T19:21:30.099Z,49.85
2022-12-23T19:24:02.948Z,52.03
2022-12-23T19:26:29.767Z,46.38
2022-12-23T19:28:56.449Z,52.15
2022-12-23T19:31:28.283Z,50.90
2022-12-23T19:34:01.852Z,35.85
2022-12-23T19:36:28.892Z,48.90
2022-12-23T19:38:59.241Z,50.47
2022-12-23T19:41:26.062Z,51.33
2022-12-23T19:43:52.887Z,49.08
2022-12-23T19:46:23.079Z,51.47
2022-12-23T19:48:59.139Z,36.53
2022-12-23T19:51:25.966Z,32.42
2022-12-23T19:54:01.268Z,32.65
2022-12-23T19:56:33.386Z,34.75
2022-12-23T19:59:00.560Z,50.88
2022-12-23T20:01:30.898Z,40.67
2022-12-23T20:03:58.756Z,52.10
2022-12-23T20:06:30.266Z,52.97
2022-12-23T20:09:00.800Z,53.33
2022-12-23T20:11:30.937Z,52.28
2022-12-23T20:13:58.582Z,53.38
2022-12-23T20:16:26.469Z,52.95
2022-12-23T20:18:53.608Z,44.60
2022-12-23T20:21:27.356Z,54.30
2022-12-23T20:23:58.160Z,38.20
2022-12-23T20:26:29.529Z,53.30
2022-12-23T20:28:59.821Z,53.03
2022-12-23T20:31:31.990Z,38.40
2022-12-23T20:34:05.194Z,55.15
2022-12-23T20:36:34.590Z,58.45
2022-12-23T20:39:03.617Z,56.75
2022-12-23T20:41:31.575Z,57.67
2022-12-23T20:46:45.986Z,60.92
2022-12-23T20:49:12.783Z,60.40
2022-12-23T20:51:40.617Z,42.33
2022-12-23T20:54:10.298Z,42.10
2022-12-23T20:56:37.029Z,44.10
2022-12-23T20:59:04.797Z,42.15
2022-12-23T21:01:43.805Z,40.85
2022-12-23T21:04:18.505Z,51.33
2022-12-23T21:06:45.428Z,48.88
2022-12-23T21:09:13.939Z,48.63
2022-12-23T21:11:46.273Z,47.88
2022-12-23T21:14:14.602Z,46.08
2022-12-23T21:16:42.075Z,47.88
2022-12-23T21:19:13.824Z,47.22
2022-12-23T21:21:40.539Z,49.50
2022-12-23T21:24:07.424Z,50.03
2022-12-23T21:26:37.937Z,51.05
2022-12-23T21:29:06.767Z,52.20
2022-12-23T21:31:36.686Z,51.20
2022-12-23T21:34:04.262Z,56.63
2022-12-23T21:36:34.318Z,58.40
2022-12-23T21:39:02.033Z,47.58
2022-12-23T21:41:31.167Z,55.60
2022-12-23T21:43:59.869Z,56.35
2022-12-23T21:46:30.674Z,56.47
2022-12-23T21:49:00.666Z,58.90
2022-12-23T21:51:39.531Z,58.00
2022-12-23T21:54:07.989Z,58.05
2022-12-23T21:56:34.979Z,50.42
2022-12-23T21:59:12.590Z,59.38
2022-12-23T22:01:40.012Z,62.05
2022-12-23T22:04:07.612Z,57.90
2022-12-23T22:06:38.037Z,58.50
2022-12-23T22:09:07.275Z,62.05
2022-12-23T22:11:36.032Z,59.65
2022-12-23T22:14:04.443Z,59.50
2022-12-23T22:16:32.322Z,56.60
2022-12-23T22:19:01.075Z,55.33
2022-12-23T22:21:30.511Z,58.53
2022-12-23T22:23:57.638Z,57.13
2022-12-23T22:26:27.551Z,61.67
2022-12-23T22:28:56.204Z,46.25
2022-12-23T22:31:27.539Z,46.28
2022-12-23T22:33:54.424Z,61.28
2022-12-23T22:36:21.268Z,52.03
2022-12-23T22:39:07.927Z,47.55
2022-12-23T22:41:37.645Z,49.63
2022-12-23T22:44:04.594Z,58.00
2022-12-23T22:46:31.429Z,56.30
2022-12-23T22:49:03.905Z,54.70
2022-12-23T22:51:31.665Z,44.72
2022-12-23T22:53:58.986Z,58.63
2022-12-23T22:56:26.376Z,57.67
2022-12-23T22:58:54.815Z,60.25
2022-12-23T23:01:28.584Z,59.40
2022-12-23T23:03:57.618Z,45.70
2022-12-23T23:06:25.978Z,64.55
2022-12-23T23:08:53.360Z,63.03
2022-12-23T23:11:20.256Z,60.75
2022-12-23T23:13:47.166Z,65.32
2022-12-23T23:16:14.076Z,52.05
2022-12-23T23:18:40.885Z,62.10
2022-12-23T23:21:08.389Z,60.95
2022-12-23T23:23:38.587Z,64.57
2022-12-23T23:26:11.309Z,62.72
2022-12-23T23:28:39.566Z,64.00
2022-12-23T23:31:40.684Z,60.05
2022-12-23T23:33:54.338Z,64.80
2022-12-23T23:36:21.488Z,65.53
2022-12-23T23:38:48.385Z,64.57
2022-12-23T23:41:22.500Z,44.55
2022-12-23T23:43:49.955Z,45.17
2022-12-23T23:46:16.746Z,45.20
2022-12-23T23:48:43.539Z,45.13
2022-12-23T23:51:10.313Z,42.60
2022-12-23T23:53:37.104Z,41.40
2022-12-23T23:56:23.821Z,42.83
2022-12-23T23:58:52.193Z,59.42
